sensor_id;sensor_type;location;lat;lon;timestamp;pressure;altitude;pressure_sealevel;temperature;humidity
69982;BME280;57319;56.274;43.980;2022-11-15T00:01:29;99717.25;;;-3.08;74.15
69982;BME280;57319;56.274;43.980;2022-11-15T00:03:54;99714.59;;;-3.11;74.18
69982;BME280;57319;56.274;43.980;2022-11-15T00:06:20;99697.38;;;-3.02;74.12
69982;BME280;57319;56.274;43.980;2022-11-15T00:08:46;99706.03;;;-2.95;73.35
69982;BME280;57319;56.274;43.980;2022-11-15T00:11:12;99714.44;;;-2.95;73.59
69982;BME280;57319;56.274;43.980;2022-11-15T00:13:38;99703.75;;;-2.89;73.52
69982;BME280;57319;56.274;43.980;2022-11-15T00:16:04;99702.78;;;-2.93;73.87
69982;BME280;57319;56.274;43.980;2022-11-15T00:18:30;99704.53;;;-2.90;73.67
69982;BME280;57319;56.274;43.980;2022-11-15T00:20:56;99703.75;;;-2.89;73.36
69982;BME280;57319;56.274;43.980;2022-11-15T00:23:27;99705.53;;;-2.86;73.28
69982;BME280;57319;56.274;43.980;2022-11-15T00:25:59;99705.19;;;-2.75;72.87
69982;BME280;57319;56.274;43.980;2022-11-15T00:28:25;99709.72;;;-2.66;72.62
69982;BME280;57319;56.274;43.980;2022-11-15T00:30:51;99705.84;;;-2.58;72.27
69982;BME280;57319;56.274;43.980;2022-11-15T00:33:16;99694.03;;;-2.59;71.83
69982;BME280;57319;56.274;43.980;2022-11-15T00:35:42;99692.59;;;-2.52;71.87
69982;BME280;57319;56.274;43.980;2022-11-15T00:38:08;99682.59;;;-2.50;71.65
69982;BME280;57319;56.274;43.980;2022-11-15T00:40:33;99683.31;;;-2.53;71.51
69982;BME280;57319;56.274;43.980;2022-11-15T00:42:59;99683.53;;;-2.48;71.16
69982;BME280;57319;56.274;43.980;2022-11-15T00:45:25;99680.94;;;-2.50;71.27
69982;BME280;57319;56.274;43.980;2022-11-15T00:47:51;99674.28;;;-2.48;71.11
69982;BME280;57319;56.274;43.980;2022-11-15T00:50:17;99674.22;;;-2.49;71.15
69982;BME280;57319;56.274;43.980;2022-11-15T00:52:44;99670.81;;;-2.51;70.80
69982;BME280;57319;56.274;43.980;2022-11-15T00:55:14;99669.56;;;-2.61;71.09
69982;BME280;57319;56.274;43.980;2022-11-15T00:57:40;99669.34;;;-2.67;71.07
69982;BME280;57319;56.274;43.980;2022-11-15T01:00:06;99680.81;;;-2.53;70.86
69982;BME280;57319;56.274;43.980;2022-11-15T01:02:32;99679.06;;;-2.56;70.85
69982;BME280;57319;56.274;43.980;2022-11-15T01:04:58;99675.66;;;-2.56;70.91
69982;BME280;57319;56.274;43.980;2022-11-15T01:07:23;99674.84;;;-2.55;70.71
69982;BME280;57319;56.274;43.980;2022-11-15T01:09:49;99668.28;;;-2.51;70.75
69982;BME280;57319;56.274;43.980;2022-11-15T01:12:15;99677.59;;;-2.49;69.90
69982;BME280;57319;56.274;43.980;2022-11-15T01:14:40;99672.69;;;-2.46;69.78
69982;BME280;57319;56.274;43.980;2022-11-15T01:17:06;99675.69;;;-2.54;69.94
69982;BME280;57319;56.274;43.980;2022-11-15T01:19:31;99673.69;;;-2.63;69.91
69982;BME280;57319;56.274;43.980;2022-11-15T01:21:57;99670.34;;;-2.64;70.04
69982;BME280;57319;56.274;43.980;2022-11-15T01:24:23;99667.34;;;-2.53;69.35
69982;BME280;57319;56.274;43.980;2022-11-15T01:26:48;99669.66;;;-2.60;69.28
69982;BME280;57319;56.274;43.980;2022-11-15T01:29:14;99668.28;;;-2.73;69.50
69982;BME280;57319;56.274;43.980;2022-11-15T01:31:39;99672.16;;;-2.60;68.98
69982;BME280;57319;56.274;43.980;2022-11-15T01:34:05;99677.69;;;-2.68;69.22
69982;BME280;57319;56.274;43.980;2022-11-15T01:36:30;99681.44;;;-2.80;69.35
69982;BME280;57319;56.274;43.980;2022-11-15T01:38:57;99682.84;;;-2.65;69.44
69982;BME280;57319;56.274;43.980;2022-11-15T01:41:25;99676.91;;;-2.67;69.33
69982;BME280;57319;56.274;43.980;2022-11-15T01:43:54;99674.31;;;-2.69;69.17
69982;BME280;57319;56.274;43.980;2022-11-15T01:46:34;99673.38;;;-2.71;69.06
69982;BME280;57319;56.274;43.980;2022-11-15T01:49:10;99677.56;;;-2.71;69.06
69982;BME280;57319;56.274;43.980;2022-11-15T01:51:37;99681.41;;;-2.81;69.01
69982;BME280;57319;56.274;43.980;2022-11-15T01:54:09;99675.69;;;-2.77;69.05
69982;BME280;57319;56.274;43.980;2022-11-15T01:56:43;99670.63;;;-2.77;68.95
69982;BME280;57319;56.274;43.980;2022-11-15T01:59:10;99674.50;;;-2.85;68.97
69982;BME280;57319;56.274;43.980;2022-11-15T02:01:37;99679.44;;;-2.88;69.02
69982;BME280;57319;56.274;43.980;2022-11-15T02:04:11;99672.91;;;-2.83;68.98
69982;BME280;57319;56.274;43.980;2022-11-15T02:06:38;99673.03;;;-2.80;69.22
69982;BME280;57319;56.274;43.980;2022-11-15T02:09:04;99668.91;;;-2.78;68.68
69982;BME280;57319;56.274;43.980;2022-11-15T02:11:30;99675.25;;;-2.88;69.29
69982;BME280;57319;56.274;43.980;2022-11-15T02:13:57;99671.38;;;-2.80;69.16
69982;BME280;57319;56.274;43.980;2022-11-15T02:28:10;99669.00;;;-2.98;68.91
69982;BME280;57319;56.274;43.980;2022-11-15T02:30:47;99675.88;;;-2.94;69.57
69982;BME280;57319;56.274;43.980;2022-11-15T02:38:58;99671.94;;;-2.87;69.04
69982;BME280;57319;56.274;43.980;2022-11-15T02:41:45;99670.09;;;-2.91;68.93
69982;BME280;57319;56.274;43.980;2022-11-15T02:49:32;99658.97;;;-2.96;69.64
69982;BME280;57319;56.274;43.980;2022-11-15T02:51:59;99671.78;;;-2.90;69.57
69982;BME280;57319;56.274;43.980;2022-11-15T02:54:28;99670.72;;;-2.97;69.95
69982;BME280;57319;56.274;43.980;2022-11-15T02:56:57;99673.34;;;-2.94;70.06
69982;BME280;57319;56.274;43.980;2022-11-15T03:05:25;99668.69;;;-2.84;70.56
69982;BME280;57319;56.274;43.980;2022-11-15T03:08:04;99675.97;;;-2.91;70.68
69982;BME280;57319;56.274;43.980;2022-11-15T03:18:37;99674.25;;;-2.92;71.31
69982;BME280;57319;56.274;43.980;2022-11-15T03:21:07;99670.22;;;-2.88;71.06
69982;BME280;57319;56.274;43.980;2022-11-15T03:23:37;99676.09;;;-2.87;70.99
69982;BME280;57319;56.274;43.980;2022-11-15T03:26:07;99679.50;;;-2.87;71.10
69982;BME280;57319;56.274;43.980;2022-11-15T03:29:03;99671.78;;;-2.90;71.07
69982;BME280;57319;56.274;43.980;2022-11-15T03:31:33;99680.28;;;-2.88;71.52
69982;BME280;57319;56.274;43.980;2022-11-15T03:34:31;99678.50;;;-2.91;71.50
69982;BME280;57319;56.274;43.980;2022-11-15T03:36:58;99687.22;;;-2.82;71.55
69982;BME280;57319;56.274;43.980;2022-11-15T03:39:24;99672.00;;;-2.85;71.53
69982;BME280;57319;56.274;43.980;2022-11-15T03:42:27;99685.16;;;-2.93;72.15
69982;BME280;57319;56.274;43.980;2022-11-15T03:45:02;99685.38;;;-2.86;71.96
69982;BME280;57319;56.274;43.980;2022-11-15T03:47:52;99693.38;;;-2.97;71.81
69982;BME280;57319;56.274;43.980;2022-11-15T03:50:21;99695.34;;;-2.90;71.65
69982;BME280;57319;56.274;43.980;2022-11-15T03:52:49;99698.72;;;-2.89;71.77
69982;BME280;57319;56.274;43.980;2022-11-15T03:55:18;99695.41;;;-2.88;71.91
69982;BME280;57319;56.274;43.980;2022-11-15T03:57:44;99698.09;;;-2.83;72.11
69982;BME280;57319;56.274;43.980;2022-11-15T04:00:11;99694.66;;;-2.85;72.25
69982;BME280;57319;56.274;43.980;2022-11-15T04:02:37;99698.91;;;-2.84;72.20
69982;BME280;57319;56.274;43.980;2022-11-15T04:05:03;99700.81;;;-2.79;71.87
69982;BME280;57319;56.274;43.980;2022-11-15T04:07:29;99701.59;;;-2.80;72.08
69982;BME280;57319;56.274;43.980;2022-11-15T04:09:54;99697.25;;;-2.84;72.36
69982;BME280;57319;56.274;43.980;2022-11-15T04:12:30;99702.72;;;-2.73;72.16
69982;BME280;57319;56.274;43.980;2022-11-15T04:15:00;99704.50;;;-2.70;71.94
69982;BME280;57319;56.274;43.980;2022-11-15T04:17:53;99698.47;;;-2.74;72.28
69982;BME280;57319;56.274;43.980;2022-11-15T04:20:24;99699.25;;;-2.75;72.26
69982;BME280;57319;56.274;43.980;2022-11-15T04:23:10;99700.31;;;-2.70;72.43
69982;BME280;57319;56.274;43.980;2022-11-15T04:25:56;99696.88;;;-2.72;72.39
69982;BME280;57319;56.274;43.980;2022-11-15T04:28:23;99693.50;;;-2.73;72.72
69982;BME280;57319;56.274;43.980;2022-11-15T04:30:48;99700.25;;;-2.71;72.69
69982;BME280;57319;56.274;43.980;2022-11-15T04:33:14;99703.69;;;-2.69;72.46
69982;BME280;57319;56.274;43.980;2022-11-15T04:35:40;99706.16;;;-2.71;72.70
69982;BME280;57319;56.274;43.980;2022-11-15T04:38:09;99712.97;;;-2.68;72.91
69982;BME280;57319;56.274;43.980;2022-11-15T04:40:36;99713.59;;;-2.74;72.92
69982;BME280;57319;56.274;43.980;2022-11-15T04:43:04;99715.53;;;-2.67;72.73
69982;BME280;57319;56.274;43.980;2022-11-15T04:45:32;99712.78;;;-2.73;73.37
69982;BME280;57319;56.274;43.980;2022-11-15T04:47:57;99712.13;;;-2.69;72.98
69982;BME280;57319;56.274;43.980;2022-11-15T04:50:23;99706.50;;;-2.62;72.58
69982;BME280;57319;56.274;43.980;2022-11-15T04:52:53;99721.13;;;-2.53;72.54
69982;BME280;57319;56.274;43.980;2022-11-15T04:55:19;99721.28;;;-2.50;72.25
69982;BME280;57319;56.274;43.980;2022-11-15T04:57:45;99715.06;;;-2.58;72.52
69982;BME280;57319;56.274;43.980;2022-11-15T05:00:13;99713.75;;;-2.48;72.44
69982;BME280;57319;56.274;43.980;2022-11-15T05:02:39;99718.75;;;-2.50;72.08
69982;BME280;57319;56.274;43.980;2022-11-15T05:05:24;99714.50;;;-2.51;72.11
69982;BME280;57319;56.274;43.980;2022-11-15T05:07:50;99723.84;;;-2.48;71.96
69982;BME280;57319;56.274;43.980;2022-11-15T05:10:17;99713.56;;;-2.53;72.04
69982;BME280;57319;56.274;43.980;2022-11-15T05:12:42;99724.22;;;-2.39;71.50
69982;BME280;57319;56.274;43.980;2022-11-15T05:15:08;99721.31;;;-2.48;71.70
69982;BME280;57319;56.274;43.980;2022-11-15T05:17:34;99733.31;;;-2.43;71.93
69982;BME280;57319;56.274;43.980;2022-11-15T05:20:00;99723.53;;;-2.56;71.94
69982;BME280;57319;56.274;43.980;2022-11-15T05:22:26;99733.94;;;-2.48;71.17
69982;BME280;57319;56.274;43.980;2022-11-15T05:24:52;99741.50;;;-2.48;70.26
69982;BME280;57319;56.274;43.980;2022-11-15T05:27:17;99726.25;;;-2.51;70.45
69982;BME280;57319;56.274;43.980;2022-11-15T05:29:46;99736.34;;;-2.51;70.69
69982;BME280;57319;56.274;43.980;2022-11-15T05:32:15;99742.59;;;-2.42;70.62
69982;BME280;57319;56.274;43.980;2022-11-15T05:34:42;99733.88;;;-2.50;70.54
69982;BME280;57319;56.274;43.980;2022-11-15T05:37:08;99748.53;;;-2.40;70.46
69982;BME280;57319;56.274;43.980;2022-11-15T05:39:34;99743.56;;;-2.38;69.89
69982;BME280;57319;56.274;43.980;2022-11-15T05:42:11;99737.97;;;-2.31;69.98
69982;BME280;57319;56.274;43.980;2022-11-15T05:44:41;99749.59;;;-2.34;69.88
69982;BME280;57319;56.274;43.980;2022-11-15T05:47:13;99749.81;;;-2.28;69.36
69982;BME280;57319;56.274;43.980;2022-11-15T05:49:43;99740.34;;;-2.34;68.89
69982;BME280;57319;56.274;43.980;2022-11-15T05:52:11;99753.91;;;-2.32;69.02
69982;BME280;57319;56.274;43.980;2022-11-15T05:54:39;99755.53;;;-2.32;67.96
69982;BME280;57319;56.274;43.980;2022-11-15T05:57:05;99755.19;;;-2.42;68.35
69982;BME280;57319;56.274;43.980;2022-11-15T05:59:53;99747.69;;;-2.40;67.64
69982;BME280;57319;56.274;43.980;2022-11-15T06:02:26;99748.06;;;-2.31;67.07
69982;BME280;57319;56.274;43.980;2022-11-15T06:05:00;99758.44;;;-2.23;67.03
69982;BME280;57319;56.274;43.980;2022-11-15T06:07:29;99750.06;;;-2.22;67.37
69982;BME280;57319;56.274;43.980;2022-11-15T06:10:05;99755.16;;;-2.20;67.71
69982;BME280;57319;56.274;43.980;2022-11-15T06:12:31;99766.53;;;-2.09;67.20
69982;BME280;57319;56.274;43.980;2022-11-15T06:14:59;99753.50;;;-2.20;67.21
69982;BME280;57319;56.274;43.980;2022-11-15T06:17:25;99764.75;;;-2.12;67.11
69982;BME280;57319;56.274;43.980;2022-11-15T06:20:02;99757.31;;;-2.09;67.37
69982;BME280;57319;56.274;43.980;2022-11-15T06:22:28;99743.59;;;-2.15;67.69
69982;BME280;57319;56.274;43.980;2022-11-15T06:24:54;99755.53;;;-2.11;67.56
69982;BME280;57319;56.274;43.980;2022-11-15T06:27:20;99761.69;;;-2.26;68.26
69982;BME280;57319;56.274;43.980;2022-11-15T06:29:56;99770.97;;;-2.25;68.40
69982;BME280;57319;56.274;43.980;2022-11-15T06:32:24;99757.81;;;-2.17;68.20
69982;BME280;57319;56.274;43.980;2022-11-15T06:34:51;99752.34;;;-2.28;68.47
69982;BME280;57319;56.274;43.980;2022-11-15T06:37:17;99768.09;;;-2.13;68.43
69982;BME280;57319;56.274;43.980;2022-11-15T06:39:43;99764.53;;;-2.18;67.23
69982;BME280;57319;56.274;43.980;2022-11-15T06:42:09;99764.53;;;-2.18;67.66
69982;BME280;57319;56.274;43.980;2022-11-15T06:44:34;99757.00;;;-2.16;67.83
69982;BME280;57319;56.274;43.980;2022-11-15T06:47:00;99764.34;;;-2.23;68.22
69982;BME280;57319;56.274;43.980;2022-11-15T06:49:25;99763.72;;;-2.17;67.12
69982;BME280;57319;56.274;43.980;2022-11-15T06:51:51;99762.31;;;-2.10;66.39
69982;BME280;57319;56.274;43.980;2022-11-15T06:54:17;99766.56;;;-2.30;67.36
69982;BME280;57319;56.274;43.980;2022-11-15T06:56:42;99771.56;;;-2.09;66.61
69982;BME280;57319;56.274;43.980;2022-11-15T06:59:08;99772.03;;;-2.19;66.73
69982;BME280;57319;56.274;43.980;2022-11-15T07:01:35;99758.31;;;-2.26;66.64
69982;BME280;57319;56.274;43.980;2022-11-15T07:04:23;99758.28;;;-2.05;66.43
69982;BME280;57319;56.274;43.980;2022-11-15T07:06:51;99765.28;;;-1.98;65.92
69982;BME280;57319;56.274;43.980;2022-11-15T07:09:20;99756.34;;;-1.90;65.83
69982;BME280;57319;56.274;43.980;2022-11-15T07:11:49;99764.03;;;-1.86;65.83
69982;BME280;57319;56.274;43.980;2022-11-15T07:14:17;99760.91;;;-1.79;65.66
69982;BME280;57319;56.274;43.980;2022-11-15T07:16:44;99754.03;;;-1.83;66.05
69982;BME280;57319;56.274;43.980;2022-11-15T07:19:14;99751.41;;;-1.86;65.12
69982;BME280;57319;56.274;43.980;2022-11-15T07:21:42;99761.91;;;-1.76;65.04
69982;BME280;57319;56.274;43.980;2022-11-15T07:24:09;99758.19;;;-1.85;64.91
69982;BME280;57319;56.274;43.980;2022-11-15T07:26:37;99754.03;;;-1.83;64.90
69982;BME280;57319;56.274;43.980;2022-11-15T07:29:05;99759.88;;;-1.84;65.14
69982;BME280;57319;56.274;43.980;2022-11-15T07:31:34;99756.66;;;-1.80;64.88
69982;BME280;57319;56.274;43.980;2022-11-15T07:34:03;99757.94;;;-1.92;65.47
69982;BME280;57319;56.274;43.980;2022-11-15T07:36:32;99756.50;;;-1.85;65.58
69982;BME280;57319;56.274;43.980;2022-11-15T07:38:59;99761.16;;;-1.73;65.96
69982;BME280;57319;56.274;43.980;2022-11-15T07:41:24;99756.38;;;-1.65;65.09
69982;BME280;57319;56.274;43.980;2022-11-15T07:43:54;99763.44;;;-1.57;64.75
69982;BME280;57319;56.274;43.980;2022-11-15T07:46:27;99756.66;;;-1.58;64.53
69982;BME280;57319;56.274;43.980;2022-11-15T07:48:53;99757.34;;;-1.62;64.21
69982;BME280;57319;56.274;43.980;2022-11-15T07:51:18;99750.22;;;-1.49;63.60
69982;BME280;57319;56.274;43.980;2022-11-15T07:53:44;99761.63;;;-1.37;64.08
69982;BME280;57319;56.274;43.980;2022-11-15T07:56:12;99752.09;;;-1.44;64.51
69982;BME280;57319;56.274;43.980;2022-11-15T07:58:38;99758.75;;;-1.46;65.48
69982;BME280;57319;56.274;43.980;2022-11-15T08:01:05;99765.22;;;-1.30;65.40
69982;BME280;57319;56.274;43.980;2022-11-15T08:03:31;99764.84;;;-1.41;65.83
69982;BME280;57319;56.274;43.980;2022-11-15T08:06:00;99753.88;;;-1.41;65.57
69982;BME280;57319;56.274;43.980;2022-11-15T08:08:26;99759.13;;;-1.35;65.98
69982;BME280;57319;56.274;43.980;2022-11-15T08:10:51;99761.19;;;-1.25;65.61
69982;BME280;57319;56.274;43.980;2022-11-15T08:13:17;99756.63;;;-1.35;65.63
69982;BME280;57319;56.274;43.980;2022-11-15T08:15:43;99755.75;;;-1.35;64.93
69982;BME280;57319;56.274;43.980;2022-11-15T08:18:11;99755.97;;;-1.29;64.85
69982;BME280;57319;56.274;43.980;2022-11-15T08:20:37;99751.34;;;-1.41;65.71
69982;BME280;57319;56.274;43.980;2022-11-15T08:23:04;99750.66;;;-1.37;65.17
69982;BME280;57319;56.274;43.980;2022-11-15T08:25:31;99751.56;;;-1.35;65.02
69982;BME280;57319;56.274;43.980;2022-11-15T08:28:03;99742.00;;;-1.44;65.32
69982;BME280;57319;56.274;43.980;2022-11-15T08:30:30;99751.34;;;-1.41;65.81
69982;BME280;57319;56.274;43.980;2022-11-15T08:32:58;99749.03;;;-1.35;65.59
69982;BME280;57319;56.274;43.980;2022-11-15T08:35:25;99749.44;;;-1.48;67.20
69982;BME280;57319;56.274;43.980;2022-11-15T08:37:52;99748.13;;;-1.37;66.65
69982;BME280;57319;56.274;43.980;2022-11-15T08:40:18;99750.44;;;-1.19;66.28
69982;BME280;57319;56.274;43.980;2022-11-15T08:42:48;99760.41;;;-1.24;66.01
69982;BME280;57319;56.274;43.980;2022-11-15T08:45:14;99757.34;;;-1.38;66.80
69982;BME280;57319;56.274;43.980;2022-11-15T08:47:39;99752.41;;;-1.36;66.54
69982;BME280;57319;56.274;43.980;2022-11-15T08:50:05;99755.13;;;-1.30;66.33
69982;BME280;57319;56.274;43.980;2022-11-15T08:52:32;99750.16;;;-1.27;66.29
69982;BME280;57319;56.274;43.980;2022-11-15T08:54:57;99752.53;;;-1.31;66.45
69982;BME280;57319;56.274;43.980;2022-11-15T08:57:23;99762.94;;;-1.24;66.23
69982;BME280;57319;56.274;43.980;2022-11-15T08:59:49;99754.69;;;-1.18;66.39
69982;BME280;57319;56.274;43.980;2022-11-15T09:02:15;99746.69;;;-1.30;65.66
69982;BME280;57319;56.274;43.980;2022-11-15T09:04:41;99750.75;;;-1.34;65.91
69982;BME280;57319;56.274;43.980;2022-11-15T09:07:11;99746.75;;;-1.29;66.33
69982;BME280;57319;56.274;43.980;2022-11-15T09:09:37;99749.41;;;-1.24;66.20
69982;BME280;57319;56.274;43.980;2022-11-15T09:12:05;99752.00;;;-1.23;66.14
69982;BME280;57319;56.274;43.980;2022-11-15T09:14:32;99743.13;;;-1.35;66.53
69982;BME280;57319;56.274;43.980;2022-11-15T09:16:57;99748.38;;;-1.29;66.79
69982;BME280;57319;56.274;43.980;2022-11-15T09:19:23;99756.78;;;-1.30;67.62
69982;BME280;57319;56.274;43.980;2022-11-15T09:21:49;99759.38;;;-1.29;67.29
69982;BME280;57319;56.274;43.980;2022-11-15T09:24:15;99760.25;;;-1.27;66.44
69982;BME280;57319;56.274;43.980;2022-11-15T09:26:41;99759.38;;;-1.29;66.58
69982;BME280;57319;56.274;43.980;2022-11-15T09:29:06;99758.78;;;-1.22;66.78
69982;BME280;57319;56.274;43.980;2022-11-15T09:31:32;99754.53;;;-1.23;67.01
69982;BME280;57319;56.274;43.980;2022-11-15T09:33:58;99751.78;;;-1.29;67.52
69982;BME280;57319;56.274;43.980;2022-11-15T09:36:24;99755.41;;;-1.22;66.78
69982;BME280;57319;56.274;43.980;2022-11-15T09:38:50;99759.53;;;-1.24;67.13
69982;BME280;57319;56.274;43.980;2022-11-15T09:49:14;99755.63;;;-1.40;67.78
69982;BME280;57319;56.274;43.980;2022-11-15T09:51:44;99750.47;;;-1.42;67.23
69982;BME280;57319;56.274;43.980;2022-11-15T09:56:41;99743.75;;;-1.43;67.63
69982;BME280;57319;56.274;43.980;2022-11-15T10:02:43;99741.03;;;-1.72;68.44
69982;BME280;57319;56.274;43.980;2022-11-15T10:05:14;99756.13;;;-1.49;67.78
69982;BME280;57319;56.274;43.980;2022-11-15T10:10:25;99746.53;;;-1.59;68.27
69982;BME280;57319;56.274;43.980;2022-11-15T10:12:53;99750.88;;;-1.55;67.82
69982;BME280;57319;56.274;43.980;2022-11-15T10:15:19;99749.94;;;-1.57;68.42
69982;BME280;57319;56.274;43.980;2022-11-15T10:21:15;99746.81;;;-1.50;66.77
69982;BME280;57319;56.274;43.980;2022-11-15T10:23:42;99749.63;;;-1.42;66.67
69982;BME280;57319;56.274;43.980;2022-11-15T10:26:12;99741.97;;;-1.45;66.75
69982;BME280;57319;56.274;43.980;2022-11-15T10:28:40;99752.81;;;-1.48;67.30
69982;BME280;57319;56.274;43.980;2022-11-15T10:33:47;99746.63;;;-1.56;67.69
69982;BME280;57319;56.274;43.980;2022-11-15T10:36:19;99749.16;;;-1.56;67.67
69982;BME280;57319;56.274;43.980;2022-11-15T10:39:07;99745.50;;;-1.40;67.31
69982;BME280;57319;56.274;43.980;2022-11-15T10:41:41;99751.34;;;-1.41;66.69
69982;BME280;57319;56.274;43.980;2022-11-15T10:46:42;99759.19;;;-1.58;67.64
69982;BME280;57319;56.274;43.980;2022-11-15T10:49:19;99756.22;;;-1.46;67.10
69982;BME280;57319;56.274;43.980;2022-11-15T10:54:50;99753.22;;;-1.60;67.58
69982;BME280;57319;56.274;43.980;2022-11-15T10:57:21;99745.97;;;-1.50;67.56
69982;BME280;57319;56.274;43.980;2022-11-15T10:59:52;99740.13;;;-1.49;67.60
69982;BME280;57319;56.274;43.980;2022-11-15T11:02:55;99739.59;;;-1.41;67.25
69982;BME280;57319;56.274;43.980;2022-11-15T11:07:57;99751.69;;;-1.32;66.95
69982;BME280;57319;56.274;43.980;2022-11-15T11:10:24;99747.44;;;-1.33;66.81
69982;BME280;57319;56.274;43.980;2022-11-15T11:12:52;99739.38;;;-1.47;66.43
69982;BME280;57319;56.274;43.980;2022-11-15T11:15:18;99749.47;;;-1.47;66.41
69982;BME280;57319;56.274;43.980;2022-11-15T11:18:18;99758.66;;;-1.49;66.79
69982;BME280;57319;56.274;43.980;2022-11-15T11:20:40;99756.44;;;-1.64;67.70
69982;BME280;57319;56.274;43.980;2022-11-15T11:37:00;99755.22;;;-1.51;67.50
69982;BME280;57319;56.274;43.980;2022-11-15T11:39:48;99749.94;;;-1.57;67.52
69982;BME280;57319;56.274;43.980;2022-11-15T11:48:13;99743.56;;;-1.72;67.95
69982;BME280;57319;56.274;43.980;2022-11-15T11:50:45;99748.28;;;-1.57;67.73
69982;BME280;57319;56.274;43.980;2022-11-15T11:53:13;99749.25;;;-1.53;68.08
69982;BME280;57319;56.274;43.980;2022-11-15T11:55:43;99746.81;;;-1.50;67.41
69982;BME280;57319;56.274;43.980;2022-11-15T11:58:14;99742.66;;;-1.49;67.56
69982;BME280;57319;56.274;43.980;2022-11-15T12:00:46;99737.13;;;-1.63;67.98
69982;BME280;57319;56.274;43.980;2022-11-15T12:06:01;99741.56;;;-1.56;67.87
69982;BME280;57319;56.274;43.980;2022-11-15T12:08:33;99750.69;;;-1.60;68.16
69982;BME280;57319;56.274;43.980;2022-11-15T12:11:13;99746.88;;;-1.73;68.63
69982;BME280;57319;56.274;43.980;2022-11-15T12:13:42;99741.28;;;-1.64;67.95
69982;BME280;57319;56.274;43.980;2022-11-15T12:16:23;99748.06;;;-1.63;67.32
69982;BME280;57319;56.274;43.980;2022-11-15T12:18:54;99750.00;;;-1.56;67.77
69982;BME280;57319;56.274;43.980;2022-11-15T12:21:36;99750.94;;;-1.54;67.78
69982;BME280;57319;56.274;43.980;2022-11-15T12:24:16;99746.66;;;-1.55;67.76
69982;BME280;57319;56.274;43.980;2022-11-15T12:29:56;99740.97;;;-1.49;67.22
69982;BME280;57319;56.274;43.980;2022-11-15T12:32:29;99746.50;;;-1.35;67.57
69982;BME280;57319;56.274;43.980;2022-11-15T12:34:58;99756.88;;;-1.51;67.37
69982;BME280;57319;56.274;43.980;2022-11-15T12:42:39;99747.91;;;-1.67;66.56
69982;BME280;57319;56.274;43.980;2022-11-15T12:45:29;99747.44;;;-1.80;66.65
69982;BME280;57319;56.274;43.980;2022-11-15T12:58:54;99741.59;;;-1.79;66.79
69982;BME280;57319;56.274;43.980;2022-11-15T13:15:34;99735.34;;;-1.89;66.61
69982;BME280;57319;56.274;43.980;2022-11-15T13:20:47;99731.72;;;-1.95;66.29
69982;BME280;57319;56.274;43.980;2022-11-15T13:23:15;99740.34;;;-1.90;66.14
69982;BME280;57319;56.274;43.980;2022-11-15T13:25:50;99735.22;;;-1.92;66.86
69982;BME280;57319;56.274;43.980;2022-11-15T13:28:27;99743.94;;;-1.83;66.56
69982;BME280;57319;56.274;43.980;2022-11-15T13:30:58;99729.59;;;-1.84;66.16
69982;BME280;57319;56.274;43.980;2022-11-15T13:33:30;99726.56;;;-1.98;66.06
69982;BME280;57319;56.274;43.980;2022-11-15T13:35:59;99740.16;;;-1.72;66.25
69982;BME280;57319;56.274;43.980;2022-11-15T13:38:27;99744.25;;;-1.76;65.79
69982;BME280;57319;56.274;43.980;2022-11-15T13:40:53;99733.31;;;-1.75;65.91
69982;BME280;57319;56.274;43.980;2022-11-15T13:46:11;99732.47;;;-1.75;66.05
69982;BME280;57319;56.274;43.980;2022-11-15T13:48:41;99729.94;;;-1.75;65.74
69982;BME280;57319;56.274;43.980;2022-11-15T13:54:46;99724.09;;;-1.74;65.89
69982;BME280;57319;56.274;43.980;2022-11-15T13:56:48;99740.97;;;-1.73;66.42
69982;BME280;57319;56.274;43.980;2022-11-15T13:59:36;99741.03;;;-1.72;66.38
69982;BME280;57319;56.274;43.980;2022-11-15T14:02:12;99723.34;;;-1.72;66.10
69982;BME280;57319;56.274;43.980;2022-11-15T14:04:48;99738.81;;;-1.62;66.30
69982;BME280;57319;56.274;43.980;2022-11-15T14:07:19;99738.31;;;-1.54;65.91
69982;BME280;57319;56.274;43.980;2022-11-15T14:09:47;99738.00;;;-1.61;65.77
69982;BME280;57319;56.274;43.980;2022-11-15T14:12:33;99740.97;;;-1.49;65.62
69982;BME280;57319;56.274;43.980;2022-11-15T14:15:17;99743.84;;;-1.62;65.66
69982;BME280;57319;56.274;43.980;2022-11-15T14:17:43;99736.94;;;-1.68;65.61
69982;BME280;57319;56.274;43.980;2022-11-15T14:22:58;99735.84;;;-1.75;66.21
69982;BME280;57319;56.274;43.980;2022-11-15T14:25:26;99729.94;;;-1.75;66.02
69982;BME280;57319;56.274;43.980;2022-11-15T14:30:39;99727.91;;;-1.61;65.48
69982;BME280;57319;56.274;43.980;2022-11-15T14:35:46;99732.47;;;-1.52;64.52
69982;BME280;57319;56.274;43.980;2022-11-15T14:38:11;99726.56;;;-1.76;65.12
69982;BME280;57319;56.274;43.980;2022-11-15T14:40:37;99723.03;;;-1.81;65.60
69982;BME280;57319;56.274;43.980;2022-11-15T14:43:03;99726.69;;;-1.73;65.10
69982;BME280;57319;56.274;43.980;2022-11-15T14:45:28;99718.66;;;-1.85;65.31
69982;BME280;57319;56.274;43.980;2022-11-15T14:47:54;99728.50;;;-1.91;66.32
69982;BME280;57319;56.274;43.980;2022-11-15T14:50:21;99722.50;;;-1.95;66.86
69982;BME280;57319;56.274;43.980;2022-11-15T14:52:47;99716.75;;;-2.13;67.14
69982;BME280;57319;56.274;43.980;2022-11-15T14:55:20;99723.53;;;-2.12;67.54
69982;BME280;57319;56.274;43.980;2022-11-15T14:57:47;99704.84;;;-2.17;66.74
69982;BME280;57319;56.274;43.980;2022-11-15T15:00:13;99721.19;;;-2.08;67.46
69982;BME280;57319;56.274;43.980;2022-11-15T15:02:40;99714.50;;;-2.28;67.72
69982;BME280;57319;56.274;43.980;2022-11-15T15:07:39;99723.31;;;-2.18;67.10
69982;BME280;57319;56.274;43.980;2022-11-15T15:10:05;99718.44;;;-2.14;67.13
69982;BME280;57319;56.274;43.980;2022-11-15T15:12:30;99718.78;;;-2.05;66.91
69982;BME280;57319;56.274;43.980;2022-11-15T15:14:56;99713.50;;;-2.11;67.13
69982;BME280;57319;56.274;43.980;2022-11-15T15:17:21;99719.00;;;-1.98;66.83
69982;BME280;57319;56.274;43.980;2022-11-15T15:19:47;99722.56;;;-1.93;66.47
69982;BME280;57319;56.274;43.980;2022-11-15T15:22:15;99723.19;;;-1.99;66.92
69982;BME280;57319;56.274;43.980;2022-11-15T15:24:45;99714.88;;;-1.96;67.32